Terminal Aerodrome Forecast
Issued by NWS

Home | Current Version | Previous Version | Text Only | Print | Product List | Glossary On
Versions: 1 2 3 4 5 6 7 8 9 10 11 12
000
FTUS46 KPDT 222320
TAFRDM
TAF
KRDM 222320Z 2300/2324 35010G18KT P6SM SKC
     FM230500 31006KT P6SM SKC
     FM230900 VRB04KT P6SM SKC
     FM232100 34010G16KT P6SM FEW080 SCT250=

USA.gov is the U.S. government's official web portal to all federal, state and local government web resources and services.